sensor_id;sensor_type;location;lat;lon;timestamp;pressure;altitude;pressure_sealevel;temperature;humidity
78800;BME280;68148;55.328;86.106;2023-04-03T00:00:44;101794.84;;;-5.88;43.96
78800;BME280;68148;55.328;86.106;2023-04-03T00:03:52;101795.69;;;-5.86;44.21
78800;BME280;68148;55.328;86.106;2023-04-03T00:07:11;101786.25;;;-5.87;43.92
78800;BME280;68148;55.328;86.106;2023-04-03T00:09:35;101792.25;;;-5.85;43.91
78800;BME280;68148;55.328;86.106;2023-04-03T00:12:27;101781.94;;;-5.85;43.70
78800;BME280;68148;55.328;86.106;2023-04-03T00:14:53;101790.34;;;-5.76;43.37
78800;BME280;68148;55.328;86.106;2023-04-03T00:17:22;101793.81;;;-5.77;42.94
78800;BME280;68148;55.328;86.106;2023-04-03T00:23:19;101788.59;;;-5.74;43.22
78800;BME280;68148;55.328;86.106;2023-04-03T00:25:46;101790.22;;;-5.70;43.06
78800;BME280;68148;55.328;86.106;2023-04-03T00:28:12;101790.31;;;-5.73;42.42
78800;BME280;68148;55.328;86.106;2023-04-03T00:30:40;101788.63;;;-5.76;42.93
78800;BME280;68148;55.328;86.106;2023-04-03T00:33:06;101788.59;;;-5.74;43.15
78800;BME280;68148;55.328;86.106;2023-04-03T00:35:34;101791.78;;;-5.63;49.41
78800;BME280;68148;55.328;86.106;2023-04-03T00:38:01;101796.88;;;-5.21;46.41
78800;BME280;68148;55.328;86.106;2023-04-03T00:40:42;101794.88;;;-5.09;50.05
78800;BME280;68148;55.328;86.106;2023-04-03T00:43:23;101793.81;;;-5.01;45.01
78800;BME280;68148;55.328;86.106;2023-04-03T00:45:52;101798.03;;;-4.63;56.34
78800;BME280;68148;55.328;86.106;2023-04-03T00:48:23;101800.25;;;-4.48;54.08
78800;BME280;68148;55.328;86.106;2023-04-03T00:50:52;101801.78;;;-4.41;46.18
78800;BME280;68148;55.328;86.106;2023-04-03T00:53:23;101796.72;;;-4.45;45.60
78800;BME280;68148;55.328;86.106;2023-04-03T00:55:55;101795.44;;;-4.62;43.16
78800;BME280;68148;55.328;86.106;2023-04-03T00:58:44;101809.81;;;-4.53;45.61
78800;BME280;68148;55.328;86.106;2023-04-03T01:01:41;101797.81;;;-4.54;44.38
78800;BME280;68148;55.328;86.106;2023-04-03T01:10:46;101795.63;;;-4.35;48.68
78800;BME280;68148;55.328;86.106;2023-04-03T01:13:23;101810.31;;;-4.39;44.01
78800;BME280;68148;55.328;86.106;2023-04-03T01:15:50;101810.59;;;-4.49;41.96
78800;BME280;68148;55.328;86.106;2023-04-03T01:18:18;101805.72;;;-4.28;47.12
78800;BME280;68148;55.328;86.106;2023-04-03T01:23:29;101815.53;;;-4.42;42.58
78800;BME280;68148;55.328;86.106;2023-04-03T01:26:00;101812.88;;;-4.39;45.79
78800;BME280;68148;55.328;86.106;2023-04-03T01:28:30;101816.97;;;-3.99;42.73
78800;BME280;68148;55.328;86.106;2023-04-03T01:31:18;101815.59;;;-4.12;41.03
78800;BME280;68148;55.328;86.106;2023-04-03T01:33:46;101817.53;;;-4.19;40.12
78800;BME280;68148;55.328;86.106;2023-04-03T01:36:22;101820.09;;;-4.19;44.12
78800;BME280;68148;55.328;86.106;2023-04-03T01:38:48;101825.78;;;-4.08;41.13
78800;BME280;68148;55.328;86.106;2023-04-03T01:41:14;101819.06;;;-3.81;44.73
78800;BME280;68148;55.328;86.106;2023-04-03T01:43:40;101819.41;;;-3.94;38.98
78800;BME280;68148;55.328;86.106;2023-04-03T01:46:06;101820.16;;;-3.89;41.90
78800;BME280;68148;55.328;86.106;2023-04-03T01:48:32;101815.31;;;-3.70;42.97
78800;BME280;68148;55.328;86.106;2023-04-03T01:50:58;101809.31;;;-3.71;41.78
78800;BME280;68148;55.328;86.106;2023-04-03T01:53:24;101810.16;;;-3.70;42.43
78800;BME280;68148;55.328;86.106;2023-04-03T01:55:50;101801.50;;;-3.68;41.41
78800;BME280;68148;55.328;86.106;2023-04-03T01:58:16;101813.56;;;-3.70;39.24
78800;BME280;68148;55.328;86.106;2023-04-03T02:00:42;101811.41;;;-3.54;40.54
78800;BME280;68148;55.328;86.106;2023-04-03T02:03:09;101798.78;;;-3.63;40.04
78800;BME280;68148;55.328;86.106;2023-04-03T02:05:35;101808.53;;;-3.45;42.16
78800;BME280;68148;55.328;86.106;2023-04-03T02:08:01;101795.09;;;-3.56;37.80
78800;BME280;68148;55.328;86.106;2023-04-03T02:10:27;101799.16;;;-3.47;37.90
78800;BME280;68148;55.328;86.106;2023-04-03T02:12:53;101805.88;;;-3.42;39.17
78800;BME280;68148;55.328;86.106;2023-04-03T02:15:18;101796.53;;;-3.18;38.06
78800;BME280;68148;55.328;86.106;2023-04-03T02:17:45;101791.34;;;-3.16;38.60
78800;BME280;68148;55.328;86.106;2023-04-03T02:20:11;101793.97;;;-2.91;41.00
78800;BME280;68148;55.328;86.106;2023-04-03T02:22:37;101786.25;;;-2.93;39.33
78800;BME280;68148;55.328;86.106;2023-04-03T02:25:04;101782.78;;;-2.92;37.97
78800;BME280;68148;55.328;86.106;2023-04-03T02:27:30;101787.94;;;-2.92;37.59
78800;BME280;68148;55.328;86.106;2023-04-03T02:29:56;101785.75;;;-3.04;37.27
78800;BME280;68148;55.328;86.106;2023-04-03T02:32:22;101784.97;;;-3.06;35.44
78800;BME280;68148;55.328;86.106;2023-04-03T02:34:48;101779.13;;;-3.11;35.52
78800;BME280;68148;55.328;86.106;2023-04-03T02:37:14;101778.00;;;-3.04;37.67
78800;BME280;68148;55.328;86.106;2023-04-03T02:39:40;101770.84;;;-2.96;36.18
78800;BME280;68148;55.328;86.106;2023-04-03T02:42:06;101774.44;;;-3.00;35.83
78800;BME280;68148;55.328;86.106;2023-04-03T02:44:32;101770.47;;;-2.84;37.53
78800;BME280;68148;55.328;86.106;2023-04-03T02:46:58;101761.19;;;-2.89;35.24
78800;BME280;68148;55.328;86.106;2023-04-03T02:49:24;101767.19;;;-2.89;36.63
78800;BME280;68148;55.328;86.106;2023-04-03T02:51:52;101769.31;;;-2.75;35.44
78800;BME280;68148;55.328;86.106;2023-04-03T02:54:19;101754.88;;;-2.81;34.57
78800;BME280;68148;55.328;86.106;2023-04-03T02:56:45;101759.09;;;-2.78;36.24
78800;BME280;68148;55.328;86.106;2023-04-03T02:59:11;101754.38;;;-2.65;35.26
78800;BME280;68148;55.328;86.106;2023-04-03T03:01:38;101755.13;;;-2.63;35.19
78800;BME280;68148;55.328;86.106;2023-04-03T03:04:04;101757.09;;;-2.45;35.22
78800;BME280;68148;55.328;86.106;2023-04-03T03:06:30;101750.41;;;-2.50;33.89
78800;BME280;68148;55.328;86.106;2023-04-03T03:08:56;101748.50;;;-2.45;34.77
78800;BME280;68148;55.328;86.106;2023-04-03T03:11:21;101750.88;;;-2.39;34.98
78800;BME280;68148;55.328;86.106;2023-04-03T03:13:47;101748.06;;;-2.33;34.36
78800;BME280;68148;55.328;86.106;2023-04-03T03:16:13;101731.88;;;-2.38;33.54
78800;BME280;68148;55.328;86.106;2023-04-03T03:18:45;101747.59;;;-2.44;35.13
78800;BME280;68148;55.328;86.106;2023-04-03T03:21:11;101751.59;;;-2.36;34.79
78800;BME280;68148;55.328;86.106;2023-04-03T03:23:37;101745.63;;;-2.13;35.52
78800;BME280;68148;55.328;86.106;2023-04-03T03:26:05;101736.09;;;-2.12;35.25
78800;BME280;68148;55.328;86.106;2023-04-03T03:28:32;101740.88;;;-2.02;34.53
78800;BME280;68148;55.328;86.106;2023-04-03T03:30:59;101735.66;;;-2.00;34.91
78800;BME280;68148;55.328;86.106;2023-04-03T03:33:26;101724.06;;;-1.90;34.66
78800;BME280;68148;55.328;86.106;2023-04-03T03:35:52;101732.84;;;-1.94;34.21
78800;BME280;68148;55.328;86.106;2023-04-03T03:38:19;101717.22;;;-1.91;35.82
78800;BME280;68148;55.328;86.106;2023-04-03T03:40:47;101711.78;;;-1.85;35.10
78800;BME280;68148;55.328;86.106;2023-04-03T03:43:13;101709.28;;;-1.64;34.18
78800;BME280;68148;55.328;86.106;2023-04-03T03:45:41;101705.13;;;-1.68;33.68
78800;BME280;68148;55.328;86.106;2023-04-03T03:48:08;101715.56;;;-1.70;34.59
78800;BME280;68148;55.328;86.106;2023-04-03T03:50:33;101719.41;;;-1.58;34.23
78800;BME280;68148;55.328;86.106;2023-04-03T03:52:59;101716.63;;;-1.32;36.50
78800;BME280;68148;55.328;86.106;2023-04-03T03:55:26;101707.13;;;-1.31;33.58
78800;BME280;68148;55.328;86.106;2023-04-03T03:57:53;101702.34;;;-1.20;33.45
78800;BME280;68148;55.328;86.106;2023-04-03T04:00:19;101691.56;;;-1.31;33.47
78800;BME280;68148;55.328;86.106;2023-04-03T04:02:45;101694.66;;;-1.43;33.65
78800;BME280;68148;55.328;86.106;2023-04-03T04:05:11;101686.41;;;-1.31;34.08
78800;BME280;68148;55.328;86.106;2023-04-03T04:07:37;101689.13;;;-1.14;34.07
78800;BME280;68148;55.328;86.106;2023-04-03T04:10:03;101690.78;;;-1.11;34.01
78800;BME280;68148;55.328;86.106;2023-04-03T04:12:29;101686.63;;;-1.15;32.74
78800;BME280;68148;55.328;86.106;2023-04-03T04:14:55;101677.16;;;-1.16;33.29
78800;BME280;68148;55.328;86.106;2023-04-03T04:17:24;101689.25;;;-1.17;33.16
78800;BME280;68148;55.328;86.106;2023-04-03T04:19:49;101681.19;;;-1.09;33.10
78800;BME280;68148;55.328;86.106;2023-04-03T04:22:15;101687.00;;;-1.04;33.50
78800;BME280;68148;55.328;86.106;2023-04-03T04:24:43;101692.97;;;-1.02;32.80
78800;BME280;68148;55.328;86.106;2023-04-03T04:27:21;101692.31;;;-0.87;33.93
78800;BME280;68148;55.328;86.106;2023-04-03T04:29:50;101691.25;;;-0.81;34.16
78800;BME280;68148;55.328;86.106;2023-04-03T04:32:16;101683.38;;;-0.80;33.79
78800;BME280;68148;55.328;86.106;2023-04-03T04:34:41;101677.38;;;-0.80;33.41
78800;BME280;68148;55.328;86.106;2023-04-03T04:37:08;101677.94;;;-0.73;34.27
78800;BME280;68148;55.328;86.106;2023-04-03T04:39:34;101672.81;;;-0.75;32.90
78800;BME280;68148;55.328;86.106;2023-04-03T04:42:00;101676.00;;;-0.68;33.80
78800;BME280;68148;55.328;86.106;2023-04-03T04:44:26;101669.50;;;-0.58;33.68
78800;BME280;68148;55.328;86.106;2023-04-03T04:46:51;101668.44;;;-0.54;33.63
78800;BME280;68148;55.328;86.106;2023-04-03T04:49:18;101678.53;;;-0.48;34.52
78800;BME280;68148;55.328;86.106;2023-04-03T04:51:44;101672.19;;;-0.41;33.23
78800;BME280;68148;55.328;86.106;2023-04-03T04:54:09;101674.50;;;-0.35;33.22
78800;BME280;68148;55.328;86.106;2023-04-03T04:56:35;101678.28;;;-0.23;33.91
78800;BME280;68148;55.328;86.106;2023-04-03T04:59:01;101684.78;;;-0.13;33.47
78800;BME280;68148;55.328;86.106;2023-04-03T05:01:27;101679.22;;;-0.05;34.24
78800;BME280;68148;55.328;86.106;2023-04-03T05:03:53;101669.53;;;-0.02;33.29
78800;BME280;68148;55.328;86.106;2023-04-03T05:06:19;101669.13;;;-0.11;34.54
78800;BME280;68148;55.328;86.106;2023-04-03T05:08:45;101664.41;;;0.16;34.08
78800;BME280;68148;55.328;86.106;2023-04-03T05:11:11;101659.91;;;0.19;32.17
78800;BME280;68148;55.328;86.106;2023-04-03T05:13:36;101656.34;;;0.03;32.42
78800;BME280;68148;55.328;86.106;2023-04-03T05:16:02;101651.06;;;0.23;33.72
78800;BME280;68148;55.328;86.106;2023-04-03T05:18:29;101640.56;;;0.44;33.77
78800;BME280;68148;55.328;86.106;2023-04-03T05:20:55;101630.34;;;0.58;33.40
78800;BME280;68148;55.328;86.106;2023-04-03T05:23:20;101631.25;;;0.57;33.48
78800;BME280;68148;55.328;86.106;2023-04-03T05:25:46;101634.22;;;0.49;33.34
78800;BME280;68148;55.328;86.106;2023-04-03T05:28:15;101641.41;;;0.44;33.82
78800;BME280;68148;55.328;86.106;2023-04-03T05:30:41;101645.16;;;0.39;33.62
78800;BME280;68148;55.328;86.106;2023-04-03T05:33:07;101650.13;;;0.43;33.68
78800;BME280;68148;55.328;86.106;2023-04-03T05:35:32;101634.13;;;0.51;33.28
78800;BME280;68148;55.328;86.106;2023-04-03T05:37:58;101636.66;;;0.35;34.26
78800;BME280;68148;55.328;86.106;2023-04-03T05:40:24;101627.84;;;0.38;33.33
78800;BME280;68148;55.328;86.106;2023-04-03T05:42:50;101629.88;;;0.67;33.66
78800;BME280;68148;55.328;86.106;2023-04-03T05:45:16;101622.06;;;0.85;33.59
78800;BME280;68148;55.328;86.106;2023-04-03T05:47:42;101611.84;;;0.82;33.68
78800;BME280;68148;55.328;86.106;2023-04-03T05:50:08;101618.84;;;0.97;33.41
78800;BME280;68148;55.328;86.106;2023-04-03T05:52:37;101607.38;;;1.01;33.59
78800;BME280;68148;55.328;86.106;2023-04-03T05:55:04;101605.63;;;1.02;32.80
78800;BME280;68148;55.328;86.106;2023-04-03T05:57:30;101605.47;;;1.05;33.76
78800;BME280;68148;55.328;86.106;2023-04-03T05:59:56;101597.28;;;1.12;33.19
78800;BME280;68148;55.328;86.106;2023-04-03T06:02:23;101602.69;;;1.25;33.38
78800;BME280;68148;55.328;86.106;2023-04-03T06:04:49;101602.34;;;1.31;33.86
78800;BME280;68148;55.328;86.106;2023-04-03T06:07:20;101597.91;;;1.49;33.49
78800;BME280;68148;55.328;86.106;2023-04-03T06:09:47;101596.44;;;1.61;33.22
78800;BME280;68148;55.328;86.106;2023-04-03T06:12:13;101591.38;;;1.58;33.58
78800;BME280;68148;55.328;86.106;2023-04-03T06:14:39;101590.56;;;1.57;32.63
78800;BME280;68148;55.328;86.106;2023-04-03T06:17:05;101579.56;;;1.68;33.68
78800;BME280;68148;55.328;86.106;2023-04-03T06:19:31;101576.03;;;1.85;32.77
78800;BME280;68148;55.328;86.106;2023-04-03T06:21:57;101570.75;;;1.86;32.56
78800;BME280;68148;55.328;86.106;2023-04-03T06:24:23;101571.16;;;2.10;32.80
78800;BME280;68148;55.328;86.106;2023-04-03T06:26:49;101570.69;;;2.18;32.67
78800;BME280;68148;55.328;86.106;2023-04-03T06:29:16;101570.78;;;2.16;31.91
78800;BME280;68148;55.328;86.106;2023-04-03T06:31:41;101565.22;;;2.22;32.57
78800;BME280;68148;55.328;86.106;2023-04-03T06:34:07;101568.81;;;2.36;32.08
78800;BME280;68148;55.328;86.106;2023-04-03T06:36:33;101562.13;;;2.32;32.33
78800;BME280;68148;55.328;86.106;2023-04-03T06:38:59;101559.50;;;2.32;32.42
78800;BME280;68148;55.328;86.106;2023-04-03T06:41:24;101550.69;;;2.18;32.94
78800;BME280;68148;55.328;86.106;2023-04-03T06:43:50;101541.75;;;2.38;32.92
78800;BME280;68148;55.328;86.106;2023-04-03T06:46:18;101546.47;;;2.32;32.75
78800;BME280;68148;55.328;86.106;2023-04-03T06:48:44;101547.25;;;2.48;32.49
78800;BME280;68148;55.328;86.106;2023-04-03T06:51:22;101550.44;;;2.53;32.04
78800;BME280;68148;55.328;86.106;2023-04-03T06:53:49;101537.63;;;2.79;32.98
78800;BME280;68148;55.328;86.106;2023-04-03T06:56:15;101541.44;;;2.73;32.26
78800;BME280;68148;55.328;86.106;2023-04-03T06:58:42;101540.53;;;2.88;32.14
78800;BME280;68148;55.328;86.106;2023-04-03T07:01:09;101537.72;;;2.77;32.08
78800;BME280;68148;55.328;86.106;2023-04-03T07:03:36;101543.19;;;2.87;31.85
78800;BME280;68148;55.328;86.106;2023-04-03T07:06:03;101544.25;;;2.84;30.90
78800;BME280;68148;55.328;86.106;2023-04-03T07:08:29;101551.47;;;2.65;31.64
78800;BME280;68148;55.328;86.106;2023-04-03T07:10:55;101540.97;;;2.81;31.83
78800;BME280;68148;55.328;86.106;2023-04-03T07:13:21;101545.56;;;2.91;30.99
78800;BME280;68148;55.328;86.106;2023-04-03T07:15:47;101540.97;;;2.95;31.68
78800;BME280;68148;55.328;86.106;2023-04-03T07:18:13;101537.16;;;3.15;31.25
78800;BME280;68148;55.328;86.106;2023-04-03T07:20:39;101540.44;;;3.18;30.56
78800;BME280;68148;55.328;86.106;2023-04-03T07:23:05;101540.25;;;3.21;30.84
78800;BME280;68148;55.328;86.106;2023-04-03T07:25:30;101536.50;;;3.11;31.09
78800;BME280;68148;55.328;86.106;2023-04-03T07:27:57;101531.19;;;3.27;31.08
78800;BME280;68148;55.328;86.106;2023-04-03T07:30:23;101536.13;;;3.32;30.28
78800;BME280;68148;55.328;86.106;2023-04-03T07:32:48;101532.00;;;3.42;30.49
78800;BME280;68148;55.328;86.106;2023-04-03T07:35:15;101533.91;;;3.25;31.14
78800;BME280;68148;55.328;86.106;2023-04-03T07:37:41;101526.06;;;3.40;30.78
78800;BME280;68148;55.328;86.106;2023-04-03T07:40:09;101526.31;;;3.49;31.20
78800;BME280;68148;55.328;86.106;2023-04-03T07:42:36;101530.88;;;3.60;29.16
78800;BME280;68148;55.328;86.106;2023-04-03T07:45:03;101521.13;;;3.35;30.92
78800;BME280;68148;55.328;86.106;2023-04-03T07:47:30;101516.63;;;3.51;29.64
78800;BME280;68148;55.328;86.106;2023-04-03T07:49:57;101511.09;;;3.56;30.75
78800;BME280;68148;55.328;86.106;2023-04-03T07:52:23;101516.69;;;3.64;30.63
78800;BME280;68148;55.328;86.106;2023-04-03T07:54:49;101521.69;;;3.67;29.74
78800;BME280;68148;55.328;86.106;2023-04-03T07:57:15;101519.25;;;3.79;30.24
78800;BME280;68148;55.328;86.106;2023-04-03T07:59:41;101523.53;;;3.80;29.77
78800;BME280;68148;55.328;86.106;2023-04-03T08:02:09;101516.28;;;3.70;29.73
78800;BME280;68148;55.328;86.106;2023-04-03T08:04:35;101520.56;;;3.71;28.54
78800;BME280;68148;55.328;86.106;2023-04-03T08:07:01;101517.91;;;3.86;29.94
78800;BME280;68148;55.328;86.106;2023-04-03T08:09:27;101512.81;;;3.97;29.79
78800;BME280;68148;55.328;86.106;2023-04-03T08:11:53;101513.16;;;4.05;29.38
78800;BME280;68148;55.328;86.106;2023-04-03T08:14:19;101513.59;;;4.12;29.73
78800;BME280;68148;55.328;86.106;2023-04-03T08:16:46;101510.81;;;3.88;28.65
78800;BME280;68148;55.328;86.106;2023-04-03T08:19:14;101511.56;;;3.90;28.97
78800;BME280;68148;55.328;86.106;2023-04-03T08:21:40;101499.22;;;3.92;27.80
78800;BME280;68148;55.328;86.106;2023-04-03T08:24:06;101504.84;;;3.86;27.97
78800;BME280;68148;55.328;86.106;2023-04-03T08:26:32;101505.47;;;3.89;29.23
78800;BME280;68148;55.328;86.106;2023-04-03T08:28:59;101492.56;;;4.00;29.04
78800;BME280;68148;55.328;86.106;2023-04-03T08:31:24;101487.66;;;4.09;29.43
78800;BME280;68148;55.328;86.106;2023-04-03T08:33:50;101489.53;;;4.07;27.99
78800;BME280;68148;55.328;86.106;2023-04-03T08:36:27;101482.06;;;3.88;28.68
78800;BME280;68148;55.328;86.106;2023-04-03T08:38:55;101494.16;;;4.03;28.83
78800;BME280;68148;55.328;86.106;2023-04-03T08:41:34;101490.59;;;4.04;29.34
78800;BME280;68148;55.328;86.106;2023-04-03T08:46:51;101493.19;;;4.04;29.19
78800;BME280;68148;55.328;86.106;2023-04-03T08:49:44;101495.00;;;4.16;29.07
78800;BME280;68148;55.328;86.106;2023-04-03T08:52:14;101480.78;;;4.08;28.96
78800;BME280;68148;55.328;86.106;2023-04-03T08:55:02;101474.94;;;4.17;29.72
78800;BME280;68148;55.328;86.106;2023-04-03T08:57:41;101482.66;;;4.18;29.37
78800;BME280;68148;55.328;86.106;2023-04-03T09:00:32;101464.50;;;4.17;28.35
78800;BME280;68148;55.328;86.106;2023-04-03T09:03:00;101471.91;;;4.36;28.56
78800;BME280;68148;55.328;86.106;2023-04-03T09:08:27;101469.00;;;4.40;28.77
78800;BME280;68148;55.328;86.106;2023-04-03T09:21:52;101457.63;;;4.54;28.65
78800;BME280;68148;55.328;86.106;2023-04-03T09:24:18;101454.47;;;4.49;27.91
78800;BME280;68148;55.328;86.106;2023-04-03T09:26:57;101445.38;;;4.55;27.41
78800;BME280;68148;55.328;86.106;2023-04-03T09:29:25;101442.97;;;4.39;26.89
78800;BME280;68148;55.328;86.106;2023-04-03T09:32:18;101444.81;;;4.75;27.59
78800;BME280;68148;55.328;86.106;2023-04-03T09:34:44;101450.03;;;4.75;27.26
78800;BME280;68148;55.328;86.106;2023-04-03T09:37:42;101446.41;;;4.77;27.27
78800;BME280;68148;55.328;86.106;2023-04-03T09:40:28;101433.75;;;4.84;27.92
78800;BME280;68148;55.328;86.106;2023-04-03T09:43:01;101437.81;;;4.88;27.90
78800;BME280;68148;55.328;86.106;2023-04-03T09:45:32;101440.34;;;4.77;27.98
78800;BME280;68148;55.328;86.106;2023-04-03T09:53:41;101427.84;;;4.93;27.58
78800;BME280;68148;55.328;86.106;2023-04-03T09:56:29;101432.34;;;4.91;27.34
78800;BME280;68148;55.328;86.106;2023-04-03T10:01:34;101424.94;;;4.85;27.21
78800;BME280;68148;55.328;86.106;2023-04-03T10:04:12;101414.06;;;4.78;27.20
78800;BME280;68148;55.328;86.106;2023-04-03T10:06:50;101424.34;;;4.69;25.79
78800;BME280;68148;55.328;86.106;2023-04-03T10:09:29;101429.53;;;4.82;25.71
78800;BME280;68148;55.328;86.106;2023-04-03T10:12:11;101421.59;;;4.70;24.80
78800;BME280;68148;55.328;86.106;2023-04-03T10:15:01;101422.56;;;4.69;25.58
78800;BME280;68148;55.328;86.106;2023-04-03T10:17:56;101424.53;;;4.78;25.13
78800;BME280;68148;55.328;86.106;2023-04-03T10:20:43;101423.06;;;4.74;25.63
78800;BME280;68148;55.328;86.106;2023-04-03T10:31:05;101423.47;;;4.94;25.00
78800;BME280;68148;55.328;86.106;2023-04-03T10:36:48;101421.03;;;4.91;26.24
78800;BME280;68148;55.328;86.106;2023-04-03T10:45:34;101423.88;;;4.75;25.60
78800;BME280;68148;55.328;86.106;2023-04-03T10:48:18;101427.13;;;4.91;25.10
78800;BME280;68148;55.328;86.106;2023-04-03T10:51:24;101420.56;;;4.73;25.68
78800;BME280;68148;55.328;86.106;2023-04-03T10:56:48;101430.28;;;4.58;24.16
78800;BME280;68148;55.328;86.106;2023-04-03T10:59:30;101423.09;;;4.49;24.89
78800;BME280;68148;55.328;86.106;2023-04-03T11:02:07;101432.31;;;4.42;25.98
78800;BME280;68148;55.328;86.106;2023-04-03T11:04:38;101428.44;;;4.47;25.59
78800;BME280;68148;55.328;86.106;2023-04-03T11:07:39;101435.00;;;4.40;27.02
78800;BME280;68148;55.328;86.106;2023-04-03T11:10:13;101434.69;;;4.45;26.31
78800;BME280;68148;55.328;86.106;2023-04-03T11:12:48;101436.47;;;4.44;27.00
78800;BME280;68148;55.328;86.106;2023-04-03T11:15:18;101437.75;;;4.39;27.42
78800;BME280;68148;55.328;86.106;2023-04-03T11:17:53;101429.38;;;4.34;26.66
78800;BME280;68148;55.328;86.106;2023-04-03T11:20:26;101429.38;;;4.46;26.02
78800;BME280;68148;55.328;86.106;2023-04-03T11:23:08;101435.66;;;4.44;26.91
78800;BME280;68148;55.328;86.106;2023-04-03T11:25:40;101436.59;;;4.43;26.36
78800;BME280;68148;55.328;86.106;2023-04-03T11:28:13;101433.22;;;4.41;27.06
78800;BME280;68148;55.328;86.106;2023-04-03T11:30:49;101432.31;;;4.42;27.97
78800;BME280;68148;55.328;86.106;2023-04-03T11:35:54;101438.25;;;4.31;28.08
78800;BME280;68148;55.328;86.106;2023-04-03T11:38:33;101433.84;;;4.19;27.25
78800;BME280;68148;55.328;86.106;2023-04-03T11:41:05;101439.69;;;4.10;26.96
78800;BME280;68148;55.328;86.106;2023-04-03T11:43:33;101438.66;;;3.99;27.51
78800;BME280;68148;55.328;86.106;2023-04-03T11:46:04;101429.97;;;3.99;27.97
78800;BME280;68148;55.328;86.106;2023-04-03T11:53:43;101432.91;;;3.67;27.89
78800;BME280;68148;55.328;86.106;2023-04-03T12:01:48;101437.66;;;3.48;28.85
78800;BME280;68148;55.328;86.106;2023-04-03T12:04:16;101429.19;;;3.44;29.29
78800;BME280;68148;55.328;86.106;2023-04-03T12:09:24;101428.97;;;3.35;28.17
78800;BME280;68148;55.328;86.106;2023-04-03T12:11:52;101431.00;;;3.30;29.30
78800;BME280;68148;55.328;86.106;2023-04-03T12:14:18;101422.25;;;3.31;28.94
78800;BME280;68148;55.328;86.106;2023-04-03T12:16:47;101423.94;;;3.32;30.03
78800;BME280;68148;55.328;86.106;2023-04-03T12:19:35;101423.63;;;3.36;29.64
78800;BME280;68148;55.328;86.106;2023-04-03T12:22:05;101422.16;;;3.32;29.75
78800;BME280;68148;55.328;86.106;2023-04-03T12:24:34;101420.97;;;3.23;29.90
78800;BME280;68148;55.328;86.106;2023-04-03T12:35:43;101417.53;;;2.67;31.35
78800;BME280;68148;55.328;86.106;2023-04-03T12:41:08;101412.31;;;2.53;30.90
78800;BME280;68148;55.328;86.106;2023-04-03T12:44:12;101413.97;;;2.40;32.19
78800;BME280;68148;55.328;86.106;2023-04-03T12:47:00;101420.84;;;2.26;31.38
78800;BME280;68148;55.328;86.106;2023-04-03T12:49:41;101426.53;;;2.19;31.29
78800;BME280;68148;55.328;86.106;2023-04-03T12:52:24;101421.66;;;2.13;31.39
78800;BME280;68148;55.328;86.106;2023-04-03T12:54:54;101425.66;;;2.04;31.95
78800;BME280;68148;55.328;86.106;2023-04-03T12:57:24;101413.28;;;1.93;33.41
78800;BME280;68148;55.328;86.106;2023-04-03T12:59:50;101420.59;;;1.87;32.57
78800;BME280;68148;55.328;86.106;2023-04-03T13:02:32;101422.81;;;1.79;33.05
78800;BME280;68148;55.328;86.106;2023-04-03T13:05:08;101425.56;;;1.75;32.27
78800;BME280;68148;55.328;86.106;2023-04-03T13:07:37;101429.31;;;1.71;32.14
78800;BME280;68148;55.328;86.106;2023-04-03T13:12:33;101422.34;;;1.56;33.19
78800;BME280;68148;55.328;86.106;2023-04-03T13:18:21;101435.06;;;1.46;32.55
78800;BME280;68148;55.328;86.106;2023-04-03T13:20:48;101432.72;;;1.42;32.64
78800;BME280;68148;55.328;86.106;2023-04-03T13:23:16;101427.84;;;1.36;33.44
78800;BME280;68148;55.328;86.106;2023-04-03T13:25:44;101433.13;;;1.34;34.36
78800;BME280;68148;55.328;86.106;2023-04-03T13:28:15;101436.81;;;1.30;33.34
78800;BME280;68148;55.328;86.106;2023-04-03T13:33:31;101432.81;;;1.24;33.90
78800;BME280;68148;55.328;86.106;2023-04-03T13:36:07;101433.72;;;1.23;33.46
78800;BME280;68148;55.328;86.106;2023-04-03T13:38:34;101434.88;;;1.18;33.57
78800;BME280;68148;55.328;86.106;2023-04-03T13:41:20;101434.88;;;1.18;34.38
78800;BME280;68148;55.328;86.106;2023-04-03T13:43:47;101429.78;;;1.16;33.15
78800;BME280;68148;55.328;86.106;2023-04-03T13:48:42;101431.56;;;1.16;34.02
78800;BME280;68148;55.328;86.106;2023-04-03T13:53:57;101431.88;;;1.10;33.74
78800;BME280;68148;55.328;86.106;2023-04-03T13:56:34;101425.09;;;1.07;34.33
78800;BME280;68148;55.328;86.106;2023-04-03T14:01:43;101431.69;;;0.97;34.85
78800;BME280;68148;55.328;86.106;2023-04-03T14:04:20;101429.19;;;0.95;34.34
78800;BME280;68148;55.328;86.106;2023-04-03T14:06:47;101420.72;;;0.92;34.81
78800;BME280;68148;55.328;86.106;2023-04-03T14:09:16;101426.06;;;0.89;35.03
78800;BME280;68148;55.328;86.106;2023-04-03T14:11:43;101422.88;;;0.84;35.20
78800;BME280;68148;55.328;86.106;2023-04-03T14:14:18;101424.75;;;0.82;34.73
78800;BME280;68148;55.328;86.106;2023-04-03T14:16:50;101416.94;;;0.82;34.50
78800;BME280;68148;55.328;86.106;2023-04-03T14:19:21;101425.63;;;0.81;34.84
78800;BME280;68148;55.328;86.106;2023-04-03T14:21:47;101416.41;;;0.75;34.60
78800;BME280;68148;55.328;86.106;2023-04-03T14:24:14;101414.06;;;0.70;35.30
78800;BME280;68148;55.328;86.106;2023-04-03T14:26:39;101423.69;;;0.68;35.28
78800;BME280;68148;55.328;86.106;2023-04-03T14:29:08;101418.09;;;0.60;35.12
78800;BME280;68148;55.328;86.106;2023-04-03T14:31:35;101421.56;;;0.59;35.62
78800;BME280;68148;55.328;86.106;2023-04-03T14:34:00;101418.91;;;0.61;34.39
78800;BME280;68148;55.328;86.106;2023-04-03T14:36:28;101418.16;;;0.59;35.30
78800;BME280;68148;55.328;86.106;2023-04-03T14:38:57;101417.22;;;0.60;36.42
78800;BME280;68148;55.328;86.106;2023-04-03T14:41:25;101425.19;;;0.57;35.41